sensor_id;sensor_type;location;lat;lon;timestamp;temperature;humidity
14585;DHT22;7379;51.506;11.876;2023-12-20T00:01:35;6.70;81.50
14585;DHT22;7379;51.506;11.876;2023-12-20T00:04:02;6.60;81.50
14585;DHT22;7379;51.506;11.876;2023-12-20T00:06:29;6.70;81.60
14585;DHT22;7379;51.506;11.876;2023-12-20T00:08:56;6.70;81.60
14585;DHT22;7379;51.506;11.876;2023-12-20T00:11:23;6.70;81.60
14585;DHT22;7379;51.506;11.876;2023-12-20T00:13:50;6.70;81.60
14585;DHT22;7379;51.506;11.876;2023-12-20T00:16:18;6.60;81.60
14585;DHT22;7379;51.506;11.876;2023-12-20T00:18:45;6.60;81.60
14585;DHT22;7379;51.506;11.876;2023-12-20T00:21:12;6.70;81.70
14585;DHT22;7379;51.506;11.876;2023-12-20T00:23:38;6.70;81.60
14585;DHT22;7379;51.506;11.876;2023-12-20T00:26:05;6.60;81.50
14585;DHT22;7379;51.506;11.876;2023-12-20T00:28:32;6.60;81.60
14585;DHT22;7379;51.506;11.876;2023-12-20T00:30:59;6.60;81.60
14585;DHT22;7379;51.506;11.876;2023-12-20T00:33:27;6.70;81.70
14585;DHT22;7379;51.506;11.876;2023-12-20T00:35:53;6.60;81.60
14585;DHT22;7379;51.506;11.876;2023-12-20T00:38:20;6.60;81.60
14585;DHT22;7379;51.506;11.876;2023-12-20T00:40:47;6.70;81.70
14585;DHT22;7379;51.506;11.876;2023-12-20T00:43:15;6.60;82.30
14585;DHT22;7379;51.506;11.876;2023-12-20T00:45:41;6.60;81.60
14585;DHT22;7379;51.506;11.876;2023-12-20T00:48:08;6.60;81.60
14585;DHT22;7379;51.506;11.876;2023-12-20T00:50:36;6.60;81.60
14585;DHT22;7379;51.506;11.876;2023-12-20T00:53:03;6.70;81.70
14585;DHT22;7379;51.506;11.876;2023-12-20T00:55:31;6.60;81.60
14585;DHT22;7379;51.506;11.876;2023-12-20T00:57:57;6.60;81.70
14585;DHT22;7379;51.506;11.876;2023-12-20T01:00:25;6.60;81.60
14585;DHT22;7379;51.506;11.876;2023-12-20T01:02:52;6.60;81.70
14585;DHT22;7379;51.506;11.876;2023-12-20T01:05:19;6.60;81.70
14585;DHT22;7379;51.506;11.876;2023-12-20T01:07:49;6.60;81.70
14585;DHT22;7379;51.506;11.876;2023-12-20T01:10:16;6.60;81.70
14585;DHT22;7379;51.506;11.876;2023-12-20T01:12:43;6.60;81.70
14585;DHT22;7379;51.506;11.876;2023-12-20T01:15:10;6.60;81.70
14585;DHT22;7379;51.506;11.876;2023-12-20T01:17:37;6.60;81.70
14585;DHT22;7379;51.506;11.876;2023-12-20T01:20:04;6.60;81.70
14585;DHT22;7379;51.506;11.876;2023-12-20T01:22:31;6.60;81.70
14585;DHT22;7379;51.506;11.876;2023-12-20T01:24:59;6.60;81.70
14585;DHT22;7379;51.506;11.876;2023-12-20T01:27:26;6.60;81.80
14585;DHT22;7379;51.506;11.876;2023-12-20T01:29:53;6.60;81.80
14585;DHT22;7379;51.506;11.876;2023-12-20T01:32:19;6.60;81.70
14585;DHT22;7379;51.506;11.876;2023-12-20T01:34:46;6.60;81.70
14585;DHT22;7379;51.506;11.876;2023-12-20T01:37:14;6.60;81.70
14585;DHT22;7379;51.506;11.876;2023-12-20T01:39:40;6.60;81.80
14585;DHT22;7379;51.506;11.876;2023-12-20T01:42:08;6.60;81.80
14585;DHT22;7379;51.506;11.876;2023-12-20T01:44:35;6.60;81.80
14585;DHT22;7379;51.506;11.876;2023-12-20T01:47:02;6.60;81.70
14585;DHT22;7379;51.506;11.876;2023-12-20T01:49:28;6.60;81.80
14585;DHT22;7379;51.506;11.876;2023-12-20T01:51:56;6.60;81.80
14585;DHT22;7379;51.506;11.876;2023-12-20T01:54:23;6.60;81.70
14585;DHT22;7379;51.506;11.876;2023-12-20T01:56:50;6.60;81.80
14585;DHT22;7379;51.506;11.876;2023-12-20T01:59:19;6.60;81.80
14585;DHT22;7379;51.506;11.876;2023-12-20T02:01:47;6.60;81.80
14585;DHT22;7379;51.506;11.876;2023-12-20T02:04:14;6.60;81.80
14585;DHT22;7379;51.506;11.876;2023-12-20T02:06:41;6.60;81.80
14585;DHT22;7379;51.506;11.876;2023-12-20T02:09:09;6.60;81.80
14585;DHT22;7379;51.506;11.876;2023-12-20T02:11:36;6.60;81.80
14585;DHT22;7379;51.506;11.876;2023-12-20T02:14:03;6.60;81.90
14585;DHT22;7379;51.506;11.876;2023-12-20T02:16:31;6.60;81.90
14585;DHT22;7379;51.506;11.876;2023-12-20T02:18:57;6.60;81.90
14585;DHT22;7379;51.506;11.876;2023-12-20T02:21:32;6.60;81.90
14585;DHT22;7379;51.506;11.876;2023-12-20T02:23:59;6.60;81.90
14585;DHT22;7379;51.506;11.876;2023-12-20T02:26:26;6.60;81.90
14585;DHT22;7379;51.506;11.876;2023-12-20T02:28:53;6.60;82.00
14585;DHT22;7379;51.506;11.876;2023-12-20T02:31:20;6.60;82.00
14585;DHT22;7379;51.506;11.876;2023-12-20T02:33:47;6.60;82.00
14585;DHT22;7379;51.506;11.876;2023-12-20T02:36:14;6.60;82.70
14585;DHT22;7379;51.506;11.876;2023-12-20T02:38:42;6.60;82.00
14585;DHT22;7379;51.506;11.876;2023-12-20T02:41:09;6.60;82.00
14585;DHT22;7379;51.506;11.876;2023-12-20T02:43:35;6.60;82.00
14585;DHT22;7379;51.506;11.876;2023-12-20T02:46:02;6.60;82.00
14585;DHT22;7379;51.506;11.876;2023-12-20T02:48:29;6.60;82.00
14585;DHT22;7379;51.506;11.876;2023-12-20T02:50:56;6.60;82.00
14585;DHT22;7379;51.506;11.876;2023-12-20T02:53:23;6.60;82.00
14585;DHT22;7379;51.506;11.876;2023-12-20T02:55:51;6.60;82.00
14585;DHT22;7379;51.506;11.876;2023-12-20T02:58:17;6.60;82.00
14585;DHT22;7379;51.506;11.876;2023-12-20T03:00:44;6.60;82.10
14585;DHT22;7379;51.506;11.876;2023-12-20T03:03:11;6.60;82.00
14585;DHT22;7379;51.506;11.876;2023-12-20T03:05:37;6.60;82.00
14585;DHT22;7379;51.506;11.876;2023-12-20T03:08:04;6.60;82.10
14585;DHT22;7379;51.506;11.876;2023-12-20T03:10:31;6.60;82.10
14585;DHT22;7379;51.506;11.876;2023-12-20T03:12:59;6.60;82.10
14585;DHT22;7379;51.506;11.876;2023-12-20T03:15:25;6.60;82.10
14585;DHT22;7379;51.506;11.876;2023-12-20T03:17:52;6.60;82.10
14585;DHT22;7379;51.506;11.876;2023-12-20T03:20:19;6.60;82.10
14585;DHT22;7379;51.506;11.876;2023-12-20T03:22:45;6.60;82.10
14585;DHT22;7379;51.506;11.876;2023-12-20T03:25:12;6.60;82.10
14585;DHT22;7379;51.506;11.876;2023-12-20T03:27:39;6.60;82.20
14585;DHT22;7379;51.506;11.876;2023-12-20T03:30:08;6.60;82.10
14585;DHT22;7379;51.506;11.876;2023-12-20T03:32:35;6.60;82.20
14585;DHT22;7379;51.506;11.876;2023-12-20T03:35:02;6.60;82.20
14585;DHT22;7379;51.506;11.876;2023-12-20T03:37:28;6.60;82.20
14585;DHT22;7379;51.506;11.876;2023-12-20T03:39:55;6.60;82.20
14585;DHT22;7379;51.506;11.876;2023-12-20T03:42:22;6.60;82.20
14585;DHT22;7379;51.506;11.876;2023-12-20T03:44:48;6.60;82.30
14585;DHT22;7379;51.506;11.876;2023-12-20T03:47:16;6.60;82.30
14585;DHT22;7379;51.506;11.876;2023-12-20T03:49:43;6.60;82.30
14585;DHT22;7379;51.506;11.876;2023-12-20T03:52:10;6.60;82.30
14585;DHT22;7379;51.506;11.876;2023-12-20T03:54:38;6.60;82.30
14585;DHT22;7379;51.506;11.876;2023-12-20T03:57:04;6.60;82.30
14585;DHT22;7379;51.506;11.876;2023-12-20T03:59:34;6.60;82.30
14585;DHT22;7379;51.506;11.876;2023-12-20T04:02:01;6.60;82.30
14585;DHT22;7379;51.506;11.876;2023-12-20T04:04:37;6.60;82.30
14585;DHT22;7379;51.506;11.876;2023-12-20T04:07:03;6.60;82.30
14585;DHT22;7379;51.506;11.876;2023-12-20T04:09:30;6.60;82.30
14585;DHT22;7379;51.506;11.876;2023-12-20T04:11:57;6.60;82.30
14585;DHT22;7379;51.506;11.876;2023-12-20T04:14:23;6.60;82.30
14585;DHT22;7379;51.506;11.876;2023-12-20T04:16:51;6.60;82.30
14585;DHT22;7379;51.506;11.876;2023-12-20T04:19:17;6.50;82.30
14585;DHT22;7379;51.506;11.876;2023-12-20T04:21:45;6.50;82.30
14585;DHT22;7379;51.506;11.876;2023-12-20T04:24:12;6.60;82.30
14585;DHT22;7379;51.506;11.876;2023-12-20T04:26:39;6.50;82.30
14585;DHT22;7379;51.506;11.876;2023-12-20T04:29:05;6.60;82.40
14585;DHT22;7379;51.506;11.876;2023-12-20T04:31:32;6.60;82.40
14585;DHT22;7379;51.506;11.876;2023-12-20T04:33:59;6.60;82.30
14585;DHT22;7379;51.506;11.876;2023-12-20T04:36:26;6.60;82.40
14585;DHT22;7379;51.506;11.876;2023-12-20T04:38:56;6.60;82.50
14585;DHT22;7379;51.506;11.876;2023-12-20T04:41:23;6.60;82.50
14585;DHT22;7379;51.506;11.876;2023-12-20T04:43:50;6.60;82.50
14585;DHT22;7379;51.506;11.876;2023-12-20T04:46:16;6.60;82.50
14585;DHT22;7379;51.506;11.876;2023-12-20T04:48:43;6.60;82.60
14585;DHT22;7379;51.506;11.876;2023-12-20T04:51:10;6.60;82.60
14585;DHT22;7379;51.506;11.876;2023-12-20T04:53:36;6.60;82.60
14585;DHT22;7379;51.506;11.876;2023-12-20T04:56:05;6.60;82.60
14585;DHT22;7379;51.506;11.876;2023-12-20T04:58:32;6.60;82.70
14585;DHT22;7379;51.506;11.876;2023-12-20T05:00:59;6.60;82.70
14585;DHT22;7379;51.506;11.876;2023-12-20T05:03:25;6.60;82.70
14585;DHT22;7379;51.506;11.876;2023-12-20T05:05:52;6.60;82.70
14585;DHT22;7379;51.506;11.876;2023-12-20T05:08:19;6.50;82.50
14585;DHT22;7379;51.506;11.876;2023-12-20T05:10:45;6.60;82.60
14585;DHT22;7379;51.506;11.876;2023-12-20T05:13:14;6.50;82.50
14585;DHT22;7379;51.506;11.876;2023-12-20T05:15:41;6.60;82.60
14585;DHT22;7379;51.506;11.876;2023-12-20T05:18:07;6.60;82.60
14585;DHT22;7379;51.506;11.876;2023-12-20T05:20:34;6.60;82.60
14585;DHT22;7379;51.506;11.876;2023-12-20T05:23:01;6.60;82.60
14585;DHT22;7379;51.506;11.876;2023-12-20T05:25:27;6.60;82.60
14585;DHT22;7379;51.506;11.876;2023-12-20T05:27:54;6.60;82.60
14585;DHT22;7379;51.506;11.876;2023-12-20T05:30:23;6.50;82.60
14585;DHT22;7379;51.506;11.876;2023-12-20T05:32:49;6.50;82.50
14585;DHT22;7379;51.506;11.876;2023-12-20T05:35:16;6.50;82.50
14585;DHT22;7379;51.506;11.876;2023-12-20T05:37:44;6.60;82.60
14585;DHT22;7379;51.506;11.876;2023-12-20T05:40:11;6.60;82.60
14585;DHT22;7379;51.506;11.876;2023-12-20T05:42:38;6.60;82.60
14585;DHT22;7379;51.506;11.876;2023-12-20T05:45:05;6.50;82.50
14585;DHT22;7379;51.506;11.876;2023-12-20T05:47:33;6.60;82.60
14585;DHT22;7379;51.506;11.876;2023-12-20T05:50:00;6.50;82.50
14585;DHT22;7379;51.506;11.876;2023-12-20T05:52:27;6.50;82.50
14585;DHT22;7379;51.506;11.876;2023-12-20T05:54:54;6.50;82.50
14585;DHT22;7379;51.506;11.876;2023-12-20T05:57:21;6.60;82.60
14585;DHT22;7379;51.506;11.876;2023-12-20T05:59:48;6.50;82.50
14585;DHT22;7379;51.506;11.876;2023-12-20T06:02:15;6.50;82.50
14585;DHT22;7379;51.506;11.876;2023-12-20T06:04:43;6.50;82.50
14585;DHT22;7379;51.506;11.876;2023-12-20T06:07:11;6.50;82.50
14585;DHT22;7379;51.506;11.876;2023-12-20T06:09:38;6.50;82.50
14585;DHT22;7379;51.506;11.876;2023-12-20T06:12:06;6.50;82.50
14585;DHT22;7379;51.506;11.876;2023-12-20T06:14:33;6.50;82.50
14585;DHT22;7379;51.506;11.876;2023-12-20T06:17:00;6.50;82.50
14585;DHT22;7379;51.506;11.876;2023-12-20T06:19:27;6.50;82.40
14585;DHT22;7379;51.506;11.876;2023-12-20T06:21:55;6.50;82.40
14585;DHT22;7379;51.506;11.876;2023-12-20T06:24:22;6.50;82.40
14585;DHT22;7379;51.506;11.876;2023-12-20T06:26:53;6.50;82.40
14585;DHT22;7379;51.506;11.876;2023-12-20T06:29:20;6.50;82.40
14585;DHT22;7379;51.506;11.876;2023-12-20T06:31:46;6.50;82.40
14585;DHT22;7379;51.506;11.876;2023-12-20T06:34:13;6.50;82.40
14585;DHT22;7379;51.506;11.876;2023-12-20T06:36:40;6.50;82.50
14585;DHT22;7379;51.506;11.876;2023-12-20T06:39:08;6.50;82.50
14585;DHT22;7379;51.506;11.876;2023-12-20T06:41:34;6.50;82.50
14585;DHT22;7379;51.506;11.876;2023-12-20T06:44:01;6.50;82.50
14585;DHT22;7379;51.506;11.876;2023-12-20T06:46:28;6.50;82.50
14585;DHT22;7379;51.506;11.876;2023-12-20T06:48:54;6.50;82.50
14585;DHT22;7379;51.506;11.876;2023-12-20T06:51:21;6.40;82.40
14585;DHT22;7379;51.506;11.876;2023-12-20T06:53:50;6.40;82.40
14585;DHT22;7379;51.506;11.876;2023-12-20T06:56:19;6.40;82.40
14585;DHT22;7379;51.506;11.876;2023-12-20T06:58:45;6.50;82.50
14585;DHT22;7379;51.506;11.876;2023-12-20T07:01:12;6.40;82.40
14585;DHT22;7379;51.506;11.876;2023-12-20T07:03:39;6.40;82.40
14585;DHT22;7379;51.506;11.876;2023-12-20T07:06:06;6.40;82.40
14585;DHT22;7379;51.506;11.876;2023-12-20T07:08:32;6.50;82.40
14585;DHT22;7379;51.506;11.876;2023-12-20T07:10:59;6.50;82.40
14585;DHT22;7379;51.506;11.876;2023-12-20T07:13:27;6.40;82.30
14585;DHT22;7379;51.506;11.876;2023-12-20T07:15:54;6.40;82.30
14585;DHT22;7379;51.506;11.876;2023-12-20T07:18:21;6.40;82.30
14585;DHT22;7379;51.506;11.876;2023-12-20T07:20:47;6.40;82.20
14585;DHT22;7379;51.506;11.876;2023-12-20T07:23:14;6.40;82.30
14585;DHT22;7379;51.506;11.876;2023-12-20T07:25:41;6.40;82.20
14585;DHT22;7379;51.506;11.876;2023-12-20T07:28:07;6.40;82.20
14585;DHT22;7379;51.506;11.876;2023-12-20T07:30:36;6.40;82.20
14585;DHT22;7379;51.506;11.876;2023-12-20T07:33:04;6.40;82.20
14585;DHT22;7379;51.506;11.876;2023-12-20T07:35:33;6.40;82.20
14585;DHT22;7379;51.506;11.876;2023-12-20T07:38:00;6.40;82.20
14585;DHT22;7379;51.506;11.876;2023-12-20T07:40:27;6.40;82.10
14585;DHT22;7379;51.506;11.876;2023-12-20T07:42:54;6.40;82.10
14585;DHT22;7379;51.506;11.876;2023-12-20T07:45:21;6.40;82.10
14585;DHT22;7379;51.506;11.876;2023-12-20T07:47:49;6.40;82.10
14585;DHT22;7379;51.506;11.876;2023-12-20T07:50:16;6.40;82.10
14585;DHT22;7379;51.506;11.876;2023-12-20T07:52:42;6.40;82.00
14585;DHT22;7379;51.506;11.876;2023-12-20T07:55:09;6.40;82.00
14585;DHT22;7379;51.506;11.876;2023-12-20T07:57:36;6.40;82.00
14585;DHT22;7379;51.506;11.876;2023-12-20T08:00:03;6.40;82.00
14585;DHT22;7379;51.506;11.876;2023-12-20T08:02:30;6.40;82.00
14585;DHT22;7379;51.506;11.876;2023-12-20T08:04:58;6.40;81.90
14585;DHT22;7379;51.506;11.876;2023-12-20T08:07:25;6.40;81.90
14585;DHT22;7379;51.506;11.876;2023-12-20T08:09:52;6.40;81.90
14585;DHT22;7379;51.506;11.876;2023-12-20T08:12:20;6.40;81.90
14585;DHT22;7379;51.506;11.876;2023-12-20T08:14:47;6.40;81.80
14585;DHT22;7379;51.506;11.876;2023-12-20T08:17:13;6.40;81.80
14585;DHT22;7379;51.506;11.876;2023-12-20T08:19:41;6.40;81.80
14585;DHT22;7379;51.506;11.876;2023-12-20T08:22:09;6.40;81.80
14585;DHT22;7379;51.506;11.876;2023-12-20T08:24:36;6.40;81.80
14585;DHT22;7379;51.506;11.876;2023-12-20T08:27:04;6.40;81.80
14585;DHT22;7379;51.506;11.876;2023-12-20T08:29:31;6.40;81.80
14585;DHT22;7379;51.506;11.876;2023-12-20T08:31:57;6.40;81.70
14585;DHT22;7379;51.506;11.876;2023-12-20T08:34:24;6.40;81.70
14585;DHT22;7379;51.506;11.876;2023-12-20T08:36:51;6.40;81.60
14585;DHT22;7379;51.506;11.876;2023-12-20T08:39:19;6.40;81.50
14585;DHT22;7379;51.506;11.876;2023-12-20T08:41:46;6.40;81.50
14585;DHT22;7379;51.506;11.876;2023-12-20T08:44:12;6.40;81.50
14585;DHT22;7379;51.506;11.876;2023-12-20T08:46:39;6.40;81.50
14585;DHT22;7379;51.506;11.876;2023-12-20T08:49:06;6.40;81.50
14585;DHT22;7379;51.506;11.876;2023-12-20T08:51:34;6.40;81.50
14585;DHT22;7379;51.506;11.876;2023-12-20T08:54:01;6.40;81.60
14585;DHT22;7379;51.506;11.876;2023-12-20T08:56:30;6.40;81.60
14585;DHT22;7379;51.506;11.876;2023-12-20T08:58:57;6.40;81.60
14585;DHT22;7379;51.506;11.876;2023-12-20T09:01:23;6.40;81.50
14585;DHT22;7379;51.506;11.876;2023-12-20T09:03:50;6.40;81.50
14585;DHT22;7379;51.506;11.876;2023-12-20T09:06:17;6.40;81.50
14585;DHT22;7379;51.506;11.876;2023-12-20T09:08:43;6.40;81.50
14585;DHT22;7379;51.506;11.876;2023-12-20T09:11:10;6.40;81.50
14585;DHT22;7379;51.506;11.876;2023-12-20T09:13:38;6.40;81.50
14585;DHT22;7379;51.506;11.876;2023-12-20T09:16:05;6.40;81.50
14585;DHT22;7379;51.506;11.876;2023-12-20T09:18:32;6.40;81.50
14585;DHT22;7379;51.506;11.876;2023-12-20T09:20:59;6.40;81.50
14585;DHT22;7379;51.506;11.876;2023-12-20T09:23:26;6.40;81.50
14585;DHT22;7379;51.506;11.876;2023-12-20T09:25:52;6.40;81.50
14585;DHT22;7379;51.506;11.876;2023-12-20T09:28:19;6.40;81.40
14585;DHT22;7379;51.506;11.876;2023-12-20T09:30:47;6.50;81.50
14585;DHT22;7379;51.506;11.876;2023-12-20T09:33:14;6.40;81.40
14585;DHT22;7379;51.506;11.876;2023-12-20T09:35:41;6.40;81.40
14585;DHT22;7379;51.506;11.876;2023-12-20T09:38:08;6.40;81.40
14585;DHT22;7379;51.506;11.876;2023-12-20T09:40:36;6.40;81.30
14585;DHT22;7379;51.506;11.876;2023-12-20T09:43:11;6.40;81.30
14585;DHT22;7379;51.506;11.876;2023-12-20T09:45:39;6.50;81.30
14585;DHT22;7379;51.506;11.876;2023-12-20T09:48:11;6.50;81.20
14585;DHT22;7379;51.506;11.876;2023-12-20T09:50:40;6.50;81.10
14585;DHT22;7379;51.506;11.876;2023-12-20T09:53:08;6.50;81.10
14585;DHT22;7379;51.506;11.876;2023-12-20T09:55:36;6.50;81.10
14585;DHT22;7379;51.506;11.876;2023-12-20T09:58:03;6.50;81.10
14585;DHT22;7379;51.506;11.876;2023-12-20T10:00:31;6.50;81.10
14585;DHT22;7379;51.506;11.876;2023-12-20T10:02:59;6.50;81.00
14585;DHT22;7379;51.506;11.876;2023-12-20T10:05:28;6.50;81.00
14585;DHT22;7379;51.506;11.876;2023-12-20T10:07:55;6.50;81.10
14585;DHT22;7379;51.506;11.876;2023-12-20T10:10:23;6.50;81.10
14585;DHT22;7379;51.506;11.876;2023-12-20T10:13:02;6.50;81.00
14585;DHT22;7379;51.506;11.876;2023-12-20T10:15:29;6.50;81.00
14585;DHT22;7379;51.506;11.876;2023-12-20T10:17:56;6.50;81.00
14585;DHT22;7379;51.506;11.876;2023-12-20T10:20:23;6.50;81.00
14585;DHT22;7379;51.506;11.876;2023-12-20T10:22:51;6.50;81.00
14585;DHT22;7379;51.506;11.876;2023-12-20T10:25:19;6.50;81.00
14585;DHT22;7379;51.506;11.876;2023-12-20T10:27:46;6.50;80.90
14585;DHT22;7379;51.506;11.876;2023-12-20T10:30:14;6.50;81.00
14585;DHT22;7379;51.506;11.876;2023-12-20T10:32:41;6.50;81.00
14585;DHT22;7379;51.506;11.876;2023-12-20T10:35:08;6.50;80.90
14585;DHT22;7379;51.506;11.876;2023-12-20T10:37:36;6.50;80.90
14585;DHT22;7379;51.506;11.876;2023-12-20T10:40:05;6.50;80.80
14585;DHT22;7379;51.506;11.876;2023-12-20T10:42:32;6.50;80.90
14585;DHT22;7379;51.506;11.876;2023-12-20T10:45:00;6.60;80.90
14585;DHT22;7379;51.506;11.876;2023-12-20T10:47:28;6.50;80.70
14585;DHT22;7379;51.506;11.876;2023-12-20T10:49:57;6.60;80.80
14585;DHT22;7379;51.506;11.876;2023-12-20T10:52:26;6.60;80.80
14585;DHT22;7379;51.506;11.876;2023-12-20T10:54:54;6.60;80.70
14585;DHT22;7379;51.506;11.876;2023-12-20T10:57:22;6.60;80.60
14585;DHT22;7379;51.506;11.876;2023-12-20T10:59:51;6.60;80.60
14585;DHT22;7379;51.506;11.876;2023-12-20T11:02:20;6.60;80.40
14585;DHT22;7379;51.506;11.876;2023-12-20T11:04:52;6.60;80.40
14585;DHT22;7379;51.506;11.876;2023-12-20T11:07:25;6.60;80.30
14585;DHT22;7379;51.506;11.876;2023-12-20T11:09:57;6.60;80.20
14585;DHT22;7379;51.506;11.876;2023-12-20T11:12:35;6.60;80.20
14585;DHT22;7379;51.506;11.876;2023-12-20T11:15:04;6.60;80.20
14585;DHT22;7379;51.506;11.876;2023-12-20T11:17:32;6.60;80.10
14585;DHT22;7379;51.506;11.876;2023-12-20T11:20:09;6.60;80.10
14585;DHT22;7379;51.506;11.876;2023-12-20T11:22:37;6.60;80.20
14585;DHT22;7379;51.506;11.876;2023-12-20T11:25:08;6.60;80.30
14585;DHT22;7379;51.506;11.876;2023-12-20T11:27:39;6.60;80.30
14585;DHT22;7379;51.506;11.876;2023-12-20T11:30:08;6.60;80.40
14585;DHT22;7379;51.506;11.876;2023-12-20T11:32:36;6.60;80.40
14585;DHT22;7379;51.506;11.876;2023-12-20T11:35:17;6.60;80.40
14585;DHT22;7379;51.506;11.876;2023-12-20T11:37:45;6.60;80.30
14585;DHT22;7379;51.506;11.876;2023-12-20T11:40:15;6.60;80.10
14585;DHT22;7379;51.506;11.876;2023-12-20T11:42:44;6.60;80.20
14585;DHT22;7379;51.506;11.876;2023-12-20T11:45:15;6.60;80.20
14585;DHT22;7379;51.506;11.876;2023-12-20T11:47:43;6.60;80.20
14585;DHT22;7379;51.506;11.876;2023-12-20T11:50:11;6.60;80.10
14585;DHT22;7379;51.506;11.876;2023-12-20T11:52:38;6.60;80.80
14585;DHT22;7379;51.506;11.876;2023-12-20T11:55:05;6.60;80.20
14585;DHT22;7379;51.506;11.876;2023-12-20T11:57:33;6.60;80.20
14585;DHT22;7379;51.506;11.876;2023-12-20T12:00:02;6.70;80.20
14585;DHT22;7379;51.506;11.876;2023-12-20T12:02:29;6.70;80.20
14585;DHT22;7379;51.506;11.876;2023-12-20T12:04:56;6.70;80.00
14585;DHT22;7379;51.506;11.876;2023-12-20T12:07:24;6.70;80.00
14585;DHT22;7379;51.506;11.876;2023-12-20T12:09:51;6.70;80.00
14585;DHT22;7379;51.506;11.876;2023-12-20T12:12:17;6.70;80.00
14585;DHT22;7379;51.506;11.876;2023-12-20T12:14:45;6.70;80.00
14585;DHT22;7379;51.506;11.876;2023-12-20T12:17:14;6.70;80.00
14585;DHT22;7379;51.506;11.876;2023-12-20T12:19:41;6.70;80.00
14585;DHT22;7379;51.506;11.876;2023-12-20T12:22:09;6.70;79.80
14585;DHT22;7379;51.506;11.876;2023-12-20T12:24:39;6.70;79.80
14585;DHT22;7379;51.506;11.876;2023-12-20T12:27:06;6.70;79.70
14585;DHT22;7379;51.506;11.876;2023-12-20T12:29:33;6.70;79.60
14585;DHT22;7379;51.506;11.876;2023-12-20T12:32:00;6.70;80.20
14585;DHT22;7379;51.506;11.876;2023-12-20T12:34:29;6.80;79.50
14585;DHT22;7379;51.506;11.876;2023-12-20T12:36:56;6.80;79.50
14585;DHT22;7379;51.506;11.876;2023-12-20T12:39:23;6.80;79.40
14585;DHT22;7379;51.506;11.876;2023-12-20T12:41:50;6.80;79.40
14585;DHT22;7379;51.506;11.876;2023-12-20T12:44:17;6.80;79.40
14585;DHT22;7379;51.506;11.876;2023-12-20T12:46:44;6.80;79.20
14585;DHT22;7379;51.506;11.876;2023-12-20T12:49:12;6.80;79.20
14585;DHT22;7379;51.506;11.876;2023-12-20T12:51:40;6.80;79.20
14585;DHT22;7379;51.506;11.876;2023-12-20T12:54:06;6.80;79.20
14585;DHT22;7379;51.506;11.876;2023-12-20T12:56:34;6.80;79.30
14585;DHT22;7379;51.506;11.876;2023-12-20T12:59:01;6.80;79.40
14585;DHT22;7379;51.506;11.876;2023-12-20T13:01:28;6.80;79.40
14585;DHT22;7379;51.506;11.876;2023-12-20T13:03:54;6.80;79.30
14585;DHT22;7379;51.506;11.876;2023-12-20T13:06:21;6.80;79.30
14585;DHT22;7379;51.506;11.876;2023-12-20T13:08:49;6.80;79.20
14585;DHT22;7379;51.506;11.876;2023-12-20T13:11:16;6.80;80.00
14585;DHT22;7379;51.506;11.876;2023-12-20T13:13:43;6.80;79.20
14585;DHT22;7379;51.506;11.876;2023-12-20T13:16:09;6.80;79.10
14585;DHT22;7379;51.506;11.876;2023-12-20T13:18:36;6.80;79.00
14585;DHT22;7379;51.506;11.876;2023-12-20T13:21:07;6.80;79.10
14585;DHT22;7379;51.506;11.876;2023-12-20T13:23:34;6.80;79.20
14585;DHT22;7379;51.506;11.876;2023-12-20T13:26:02;6.80;79.20
14585;DHT22;7379;51.506;11.876;2023-12-20T13:28:29;6.80;79.20
14585;DHT22;7379;51.506;11.876;2023-12-20T13:30:56;6.80;79.10
14585;DHT22;7379;51.506;11.876;2023-12-20T13:33:22;6.80;79.10
14585;DHT22;7379;51.506;11.876;2023-12-20T13:35:49;6.80;79.00
14585;DHT22;7379;51.506;11.876;2023-12-20T13:38:16;6.80;79.10
14585;DHT22;7379;51.506;11.876;2023-12-20T13:40:43;6.80;79.10
14585;DHT22;7379;51.506;11.876;2023-12-20T13:43:11;6.80;79.10
14585;DHT22;7379;51.506;11.876;2023-12-20T13:45:38;6.80;79.20
14585;DHT22;7379;51.506;11.876;2023-12-20T13:48:05;6.80;79.20
14585;DHT22;7379;51.506;11.876;2023-12-20T13:50:32;6.90;79.30
14585;DHT22;7379;51.506;11.876;2023-12-20T13:52:59;6.80;79.30
14585;DHT22;7379;51.506;11.876;2023-12-20T13:55:26;6.80;79.40
14585;DHT22;7379;51.506;11.876;2023-12-20T13:57:53;6.80;79.50
14585;DHT22;7379;51.506;11.876;2023-12-20T14:00:21;6.80;79.50
14585;DHT22;7379;51.506;11.876;2023-12-20T14:02:48;6.80;79.60
14585;DHT22;7379;51.506;11.876;2023-12-20T14:05:15;6.80;79.60
14585;DHT22;7379;51.506;11.876;2023-12-20T14:07:43;6.80;79.60
14585;DHT22;7379;51.506;11.876;2023-12-20T14:10:11;6.80;79.70
14585;DHT22;7379;51.506;11.876;2023-12-20T14:12:38;6.80;79.70
14585;DHT22;7379;51.506;11.876;2023-12-20T14:15:06;6.80;79.80
14585;DHT22;7379;51.506;11.876;2023-12-20T14:17:37;6.80;79.70
14585;DHT22;7379;51.506;11.876;2023-12-20T14:20:05;6.80;79.80
14585;DHT22;7379;51.506;11.876;2023-12-20T14:22:33;6.90;79.90
14585;DHT22;7379;51.506;11.876;2023-12-20T14:24:59;6.90;79.90
14585;DHT22;7379;51.506;11.876;2023-12-20T14:27:26;6.80;79.80
14585;DHT22;7379;51.506;11.876;2023-12-20T14:29:54;6.90;80.00
14585;DHT22;7379;51.506;11.876;2023-12-20T14:32:21;6.80;79.90
14585;DHT22;7379;51.506;11.876;2023-12-20T14:34:49;6.80;80.00
14585;DHT22;7379;51.506;11.876;2023-12-20T14:37:15;6.90;80.00
14585;DHT22;7379;51.506;11.876;2023-12-20T14:39:43;6.80;80.00
14585;DHT22;7379;51.506;11.876;2023-12-20T14:42:09;6.80;80.00
14585;DHT22;7379;51.506;11.876;2023-12-20T14:44:39;6.90;80.00
14585;DHT22;7379;51.506;11.876;2023-12-20T14:47:06;6.80;80.00
14585;DHT22;7379;51.506;11.876;2023-12-20T14:49:33;6.90;80.10
14585;DHT22;7379;51.506;11.876;2023-12-20T14:52:01;6.90;80.10
14585;DHT22;7379;51.506;11.876;2023-12-20T14:54:28;6.90;80.10
14585;DHT22;7379;51.506;11.876;2023-12-20T14:56:54;6.90;80.20
14585;DHT22;7379;51.506;11.876;2023-12-20T14:59:21;6.90;80.20
14585;DHT22;7379;51.506;11.876;2023-12-20T15:01:48;6.90;80.30
14585;DHT22;7379;51.506;11.876;2023-12-20T15:04:15;6.90;80.20
14585;DHT22;7379;51.506;11.876;2023-12-20T15:06:41;6.90;80.30
14585;DHT22;7379;51.506;11.876;2023-12-20T15:09:11;6.80;80.40
14585;DHT22;7379;51.506;11.876;2023-12-20T15:11:38;6.80;80.50
14585;DHT22;7379;51.506;11.876;2023-12-20T15:14:04;6.90;80.60
14585;DHT22;7379;51.506;11.876;2023-12-20T15:16:32;6.80;80.50
14585;DHT22;7379;51.506;11.876;2023-12-20T15:18:59;6.90;80.60
14585;DHT22;7379;51.506;11.876;2023-12-20T15:21:26;6.90;80.70
14585;DHT22;7379;51.506;11.876;2023-12-20T15:23:57;6.90;80.70
14585;DHT22;7379;51.506;11.876;2023-12-20T15:26:32;6.90;80.70
14585;DHT22;7379;51.506;11.876;2023-12-20T15:28:59;6.90;80.70
14585;DHT22;7379;51.506;11.876;2023-12-20T15:31:26;6.90;80.70
14585;DHT22;7379;51.506;11.876;2023-12-20T15:33:53;6.90;80.70
14585;DHT22;7379;51.506;11.876;2023-12-20T15:36:20;6.90;80.80
14585;DHT22;7379;51.506;11.876;2023-12-20T15:38:46;6.90;81.60
14585;DHT22;7379;51.506;11.876;2023-12-20T15:41:17;6.90;80.90
14585;DHT22;7379;51.506;11.876;2023-12-20T15:43:45;6.90;81.00
14585;DHT22;7379;51.506;11.876;2023-12-20T15:46:12;6.90;81.00